AVA9700 SKEJ-SKBO
Flight info
| Callsign | AVA9700 |
|---|---|
| Flight time | N/A |
| Altitude | 24000 |
| Route | AKSOK1A AKSOK G431 ILSEV ILSEV4E |
| Aircraft | A320/M-SDE3FGHIRWY/LB1 |
Departure
| Time | 2026-05-07 00:02 |
|---|---|
| Airport | Yariguíes Airport (SKEJ) |
Arrival
| Time | N/A |
|---|---|
| Airport | El Dorado International Airport (SKBO) |
| Time | Latitude | Longitude | Altitude | Speed | Heading |
|---|---|---|---|---|---|
| 2026-05-06 23:42 | 7.02501 | -73.80823 | 416 ft | 0 kts | 302° |
| 2026-05-06 23:54 | 7.02500 | -73.80822 | 416 ft | 2 kts | 302° |
| 2026-05-06 23:54 | 7.02491 | -73.80808 | 405 ft | 2 kts | 302° |
| 2026-05-06 23:54 | 7.02482 | -73.80794 | 405 ft | 2 kts | 302° |
| 2026-05-06 23:55 | 7.02474 | -73.80780 | 408 ft | 2 kts | 283° |
| 2026-05-06 23:55 | 7.02475 | -73.80764 | 405 ft | 2 kts | 221° |
| 2026-05-06 23:55 | 7.02480 | -73.80760 | 405 ft | 0 kts | 211° |
| 2026-05-06 23:57 | 7.02472 | -73.80765 | 406 ft | 8 kts | 211° |
| 2026-05-06 23:57 | 7.02417 | -73.80798 | 415 ft | 9 kts | 211° |
| 2026-05-06 23:57 | 7.02367 | -73.80829 | 413 ft | 8 kts | 211° |
| 2026-05-06 23:58 | 7.02319 | -73.80856 | 413 ft | 7 kts | 210° |
| 2026-05-06 23:58 | 7.02277 | -73.80881 | 415 ft | 7 kts | 210° |
| 2026-05-06 23:58 | 7.02234 | -73.80903 | 415 ft | 7 kts | 198° |
| 2026-05-06 23:58 | 7.02186 | -73.80898 | 415 ft | 7 kts | 168° |
| 2026-05-06 23:59 | 7.02141 | -73.80886 | 409 ft | 6 kts | 166° |
| 2026-05-06 23:59 | 7.02082 | -73.80891 | 413 ft | 12 kts | 206° |
| 2026-05-06 23:59 | 7.02021 | -73.80928 | 415 ft | 8 kts | 212° |
| 2026-05-06 23:59 | 7.01970 | -73.80960 | 413 ft | 8 kts | 212° |
| 2026-05-07 00:00 | 7.01927 | -73.80987 | 414 ft | 5 kts | 214° |
| 2026-05-07 00:00 | 7.01916 | -73.80998 | 412 ft | 0 kts | 205° |
| 2026-05-07 00:00 | 7.01912 | -73.80993 | 412 ft | 1 kts | 133° |
| 2026-05-07 00:00 | 7.01916 | -73.80988 | 415 ft | 1 kts | 57° |
| 2026-05-07 00:01 | 7.01922 | -73.80987 | 417 ft | 1 kts | 25° |
| 2026-05-07 00:01 | 7.01939 | -73.80978 | 415 ft | 3 kts | 29° |
| 2026-05-07 00:01 | 7.01944 | -73.80975 | 410 ft | 8 kts | 30° |
| 2026-05-07 00:01 | 7.02268 | -73.80781 | 414 ft | 95 kts | 31° |
| 2026-05-07 00:02 | 7.03023 | -73.80325 | 460 ft | 152 kts | 30° |
| 2026-05-07 00:02 | 7.03958 | -73.79757 | 1017 ft | 163 kts | 31° |
| 2026-05-07 00:02 | 7.04937 | -73.79185 | 1613 ft | 162 kts | 29° |
| 2026-05-07 00:02 | 7.05964 | -73.78604 | 2031 ft | 179 kts | 29° |
| 2026-05-07 00:03 | 7.07099 | -73.77961 | 2428 ft | 192 kts | 29° |
| 2026-05-07 00:03 | 7.08268 | -73.77262 | 2940 ft | 202 kts | 37° |
| 2026-05-07 00:03 | 7.09050 | -73.76019 | 3223 ft | 229 kts | 80° |
| 2026-05-07 00:03 | 7.08836 | -73.74389 | 3616 ft | 254 kts | 112° |
| 2026-05-07 00:04 | 7.07918 | -73.72797 | 4200 ft | 272 kts | 125° |
| 2026-05-07 00:04 | 7.06745 | -73.71267 | 5055 ft | 277 kts | 129° |
| 2026-05-07 00:04 | 7.05513 | -73.69742 | 5724 ft | 284 kts | 129° |
| 2026-05-07 00:04 | 7.04120 | -73.68361 | 6060 ft | 281 kts | 150° |
| 2026-05-07 00:05 | 7.02246 | -73.67842 | 6482 ft | 283 kts | 182° |
| 2026-05-07 00:05 | 7.00351 | -73.68328 | 6909 ft | 284 kts | 202° |
| 2026-05-07 00:05 | 6.98518 | -73.69095 | 7333 ft | 286 kts | 203° |
| 2026-05-07 00:05 | 6.96677 | -73.69876 | 7757 ft | 288 kts | 203° |
| 2026-05-07 00:06 | 6.94852 | -73.70655 | 8187 ft | 290 kts | 202° |
| 2026-05-07 00:06 | 6.92988 | -73.71447 | 8627 ft | 292 kts | 202° |
| 2026-05-07 00:06 | 6.91110 | -73.72242 | 9069 ft | 294 kts | 202° |
| 2026-05-07 00:06 | 6.89215 | -73.73044 | 9528 ft | 296 kts | 202° |
| 2026-05-07 00:07 | 6.87306 | -73.73851 | 9963 ft | 299 kts | 202° |
| 2026-05-07 00:07 | 6.85350 | -73.74677 | 10387 ft | 314 kts | 202° |
| 2026-05-07 00:07 | 6.83278 | -73.75551 | 10816 ft | 331 kts | 201° |
| 2026-05-07 00:07 | 6.81106 | -73.76468 | 11252 ft | 346 kts | 201° |
| 2026-05-07 00:08 | 6.78869 | -73.77410 | 11685 ft | 360 kts | 201° |
| 2026-05-07 00:08 | 6.76533 | -73.78395 | 12135 ft | 367 kts | 201° |
| 2026-05-07 00:08 | 6.74170 | -73.79395 | 12587 ft | 371 kts | 201° |
| 2026-05-07 00:08 | 6.71779 | -73.80406 | 13047 ft | 374 kts | 200° |
| 2026-05-07 00:09 | 6.69373 | -73.81422 | 13508 ft | 377 kts | 200° |
| 2026-05-07 00:09 | 6.66948 | -73.82446 | 13943 ft | 380 kts | 200° |
| 2026-05-07 00:09 | 6.64501 | -73.83478 | 14361 ft | 383 kts | 200° |
| 2026-05-07 00:09 | 6.62031 | -73.84517 | 14775 ft | 386 kts | 200° |
| 2026-05-07 00:10 | 6.59544 | -73.85562 | 15200 ft | 389 kts | 200° |
| 2026-05-07 00:10 | 6.57069 | -73.86601 | 15617 ft | 392 kts | 200° |
| 2026-05-07 00:10 | 6.54539 | -73.87663 | 16055 ft | 395 kts | 200° |
| 2026-05-07 00:10 | 6.51993 | -73.88734 | 16485 ft | 399 kts | 200° |
| 2026-05-07 00:11 | 6.49421 | -73.89818 | 16937 ft | 402 kts | 200° |
| 2026-05-07 00:11 | 6.46825 | -73.90867 | 17387 ft | 404 kts | 196° |
| 2026-05-07 00:11 | 6.44095 | -73.91561 | 17849 ft | 405 kts | 188° |
| 2026-05-07 00:11 | 6.41308 | -73.92079 | 18306 ft | 408 kts | 188° |
| 2026-05-07 00:12 | 6.38504 | -73.92604 | 18711 ft | 411 kts | 188° |
| 2026-05-07 00:12 | 6.35689 | -73.93131 | 19122 ft | 413 kts | 188° |
| 2026-05-07 00:12 | 6.32891 | -73.93652 | 19533 ft | 415 kts | 188° |
| 2026-05-07 00:12 | 6.30040 | -73.94184 | 19946 ft | 417 kts | 189° |
| 2026-05-07 00:13 | 6.27178 | -73.94717 | 20378 ft | 420 kts | 189° |
| 2026-05-07 00:13 | 6.24304 | -73.95252 | 20815 ft | 422 kts | 189° |
| 2026-05-07 00:13 | 6.21407 | -73.95792 | 21252 ft | 424 kts | 189° |
| 2026-05-07 00:13 | 6.18506 | -73.96334 | 21698 ft | 426 kts | 189° |
| 2026-05-07 00:14 | 6.15575 | -73.96881 | 22153 ft | 429 kts | 189° |
| 2026-05-07 00:14 | 6.12637 | -73.97430 | 22609 ft | 431 kts | 189° |
| 2026-05-07 00:14 | 6.09718 | -73.97978 | 23061 ft | 433 kts | 189° |
| 2026-05-07 00:14 | 6.06750 | -73.98536 | 23545 ft | 435 kts | 189° |
| 2026-05-07 00:15 | 6.03764 | -73.99095 | 23914 ft | 439 kts | 189° |
| 2026-05-07 00:15 | 6.00752 | -73.99659 | 24042 ft | 441 kts | 189° |
| 2026-05-07 00:15 | 5.97706 | -74.00234 | 24087 ft | 451 kts | 189° |
| 2026-05-07 00:15 | 5.94608 | -74.00820 | 24093 ft | 455 kts | 189° |
| 2026-05-07 00:16 | 5.91492 | -74.01411 | 24101 ft | 456 kts | 189° |
| 2026-05-07 00:16 | 5.88376 | -74.02003 | 24107 ft | 456 kts | 189° |
| 2026-05-07 00:16 | 5.86308 | -74.02395 | 24114 ft | 456 kts | 189° |
| 2026-05-07 00:16 | 5.82177 | -74.03180 | 24124 ft | 456 kts | 190° |
| 2026-05-07 00:17 | 5.79058 | -74.03775 | 24124 ft | 457 kts | 190° |
| 2026-05-07 00:17 | 5.75932 | -74.04371 | 24139 ft | 457 kts | 189° |
| 2026-05-07 00:17 | 5.72808 | -74.04965 | 24146 ft | 457 kts | 189° |
| 2026-05-07 00:17 | 5.69685 | -74.05556 | 24150 ft | 457 kts | 189° |
| 2026-05-07 00:18 | 5.66554 | -74.06150 | 24158 ft | 457 kts | 189° |
| 2026-05-07 00:18 | 5.63430 | -74.06743 | 24163 ft | 457 kts | 190° |
| 2026-05-07 00:18 | 5.60308 | -74.07335 | 24168 ft | 457 kts | 189° |
| 2026-05-07 00:18 | 5.57216 | -74.07919 | 23946 ft | 458 kts | 189° |
| 2026-05-07 00:19 | 5.54064 | -74.08513 | 22778 ft | 464 kts | 189° |
| 2026-05-07 00:19 | 5.50923 | -74.09106 | 22302 ft | 453 kts | 189° |
| 2026-05-07 00:19 | 5.47875 | -74.09685 | 22058 ft | 438 kts | 189° |
| 2026-05-07 00:19 | 5.44942 | -74.10327 | 21819 ft | 426 kts | 196° |
| 2026-05-07 00:20 | 5.42248 | -74.11480 | 21581 ft | 416 kts | 208° |
| 2026-05-07 00:20 | 5.39920 | -74.13142 | 21337 ft | 407 kts | 221° |
| 2026-05-07 00:20 | 5.37996 | -74.15182 | 21100 ft | 397 kts | 228° |
| 2026-05-07 00:20 | 5.36801 | -74.16547 | 20938 ft | 394 kts | 228° |
| 2026-05-07 00:22 | 5.27159 | -74.27442 | 18584 ft | 383 kts | 227° |